Date,TemperatureHighF,TemperatureAvgF,TemperatureLowF,DewpointHighF,DewpointAvgF,DewpointLowF,HumidityHigh,HumidityAvg,HumidityLow,PressureMaxIn,PressureMinIn,WindSpeedMaxMPH,WindSpeedAvgMPH,GustSpeedMaxMPH,PrecipitationSumIn
2013-11-1,52,44,34,34,27,21,75,53,30,30.19,29.85,20,-34,23,0.00
2013-11-2,67,44,27,31,25,20,80,51,18,30.21,29.72,8,1,11,0.00
2013-11-3,71,52,37,30,21,14,70,33,12,29.73,29.42,21,-20,25,0.00
2013-11-4,43,36,29,31,22,16,87,59,35,29.99,29.72,13,4,16,0.00
2013-11-5,44,34,27,24,16,3,74,50,21,30.24,29.94,24,4,26,0.00
2013-11-6,51,41,25,20,15,2,55,35,26,30.36,30.19,24,4,31,0.00
2013-11-7,58,44,29,28,23,17,67,46,29,30.38,29.97,20,-12,24,0.00
2013-11-8,67,50,33,28,23,18,67,39,17,29.98,29.76,20,-43,29,0.00
2013-11-9,66,48,37,36,28,22,68,48,20,30.19,29.94,13,3,17,0.00
2013-11-10,66,48,31,34,26,20,82,47,19,30.22,30.11,12,-44,13,0.00
2013-11-11,68,46,32,34,26,21,92,53,17,30.61,30.10,22,-26,27,0.00
2013-11-12,60,43,30,33,29,24,90,60,31,30.61,30.37,11,2,13,0.00
2013-11-13,68,50,30,30,20,11,76,37,11,30.37,29.94,14,2,17,0.00
2013-11-14,58,49,39,35,28,20,62,45,26,29.96,29.65,20,3,24,0.00
2013-11-15,65,48,30,28,20,15,64,36,15,29.66,29.39,22,-1,24,0.00
2013-11-16,60,47,37,33,23,14,75,42,19,29.48,29.19,27,5,30,0.00
2013-11-17,57,45,35,28,20,15,72,39,21,30.03,29.48,26,-60,30,0.00
2013-11-18,66,45,25,24,17,12,69,36,13,30.13,29.98,10,-19,12,0.00
2013-11-19,61,46,32,31,22,15,54,40,21,29.98,29.68,15,-12,16,0.00
2013-11-20,59,48,30,30,26,23,81,43,27,29.95,29.64,35,-18,46,0.00
2013-11-21,29,18,14,25,14,9,90,84,77,30.84,29.96,16,-10,19,0.00
2013-11-22,34,26,17,22,17,11,92,69,44,30.82,30.70,17,-46,18,0.07
2013-11-23,35,28,25,23,20,17,83,70,56,30.79,30.45,7,-18,11,0.02
2013-11-24,41,30,22,28,23,18,87,77,39,30.45,30.09,18,-50,22,0.01
2013-11-25,40,36,29,28,24,17,83,61,39,30.36,30.15,16,3,21,0.01
2013-11-26,50,36,26,29,21,18,81,59,30,30.50,30.31,11,-26,12,0.00
2013-11-27,64,43,24,28,21,18,79,47,19,30.31,30.06,8,-39,9,0.00
2013-11-28,47,36,28,28,24,20,83,62,44,30.20,30.13,10,-58,11,0.00
2013-11-29,63,44,27,32,22,17,89,47,18,30.19,30.10,13,3,18,0.00
2013-11-30,60,43,31,24,16,13,54,36,17,30.14,30.05,12,2,14,0.00